Mission Hills, Kansas
Current Conditions -  °F | °C
As of 7:54 AM on Saturday 25 Oct 2014 (Local Time) from KMKC Reporting Station
Moderate Fog Moderate Fog  
Wind Chill: 57°   Ceiling: 100
Heat Index: 57°   Visibility: 0mi
Dew Point: 56°   Wind: 0mph
Humidity: 96%   Direction: NA
Pressure: 30.04"   Gusts: NA
Location:  39.0002°N, 94.6296°W
Report Text: KMKC 251254Z 00000KT M1/4SM FG VV001 14/13 A3004 RMK AO2 SLP170 T01390133
Loading
Personal Weather Stations






























Interactive Weather Map
Tropical Storm Tracking
New forecast layout! Learn more

10-Day Weather Forecast

Advertisements
Track Severe Weather on mobile